createdAt,value
2022-09-15T03:59:23.040Z,18.56
2022-09-15T04:00:22.986Z,18.49
2022-09-15T04:01:23.107Z,18.53
2022-09-15T04:02:23.019Z,18.49
2022-09-15T04:03:22.961Z,18.49
2022-09-15T04:04:25.090Z,18.54
2022-09-15T04:05:22.938Z,18.54
2022-09-15T04:06:22.930Z,18.56
2022-09-15T04:07:24.582Z,18.57
2022-09-15T04:08:24.112Z,18.59
2022-09-15T04:09:22.918Z,18.61
2022-09-15T04:10:24.587Z,18.68
2022-09-15T04:11:23.897Z,18.60
2022-09-15T04:12:22.894Z,18.71
2022-09-15T04:13:28.589Z,18.68
2022-09-15T04:14:24.114Z,18.71
2022-09-15T04:15:24.605Z,18.66
2022-09-15T04:16:22.931Z,18.76
2022-09-15T04:17:24.609Z,18.82
2022-09-15T04:18:23.858Z,18.78
2022-09-15T04:19:24.622Z,18.82
2022-09-15T04:20:22.920Z,18.87
2022-09-15T04:21:22.855Z,18.82
2022-09-15T04:22:24.608Z,18.93
2022-09-15T04:23:22.840Z,18.86
2022-09-15T04:24:22.837Z,18.94
2022-09-15T04:25:24.596Z,18.90
2022-09-15T04:26:22.838Z,18.96
2022-09-15T04:27:24.618Z,18.96
2022-09-15T04:28:22.817Z,19.00
2022-09-15T04:29:23.808Z,19.05
2022-09-15T04:30:22.804Z,18.97
2022-09-15T04:31:22.896Z,18.99
2022-09-15T04:32:22.835Z,19.02
2022-09-15T04:33:24.622Z,19.10
2022-09-15T04:34:23.794Z,19.10
2022-09-15T04:35:22.787Z,19.10
2022-09-15T04:36:24.615Z,18.99
2022-09-15T04:37:24.602Z,19.07
2022-09-15T04:38:24.621Z,19.16
2022-09-15T04:39:24.609Z,19.17
2022-09-15T04:40:24.659Z,19.23
2022-09-15T04:41:24.606Z,19.19
2022-09-15T04:42:24.627Z,19.19
2022-09-15T04:43:24.611Z,19.16
2022-09-15T04:44:24.642Z,19.15
2022-09-15T04:45:24.620Z,19.20
2022-09-15T04:46:24.656Z,19.24
2022-09-15T04:47:24.620Z,19.32
2022-09-15T04:48:24.621Z,19.23
2022-09-15T04:49:24.638Z,19.28
2022-09-15T04:50:24.615Z,19.37
2022-09-15T04:51:24.624Z,19.32
2022-09-15T04:52:24.616Z,19.40
2022-09-15T04:53:24.617Z,19.34
2022-09-15T04:54:24.631Z,19.37
2022-09-15T04:55:24.632Z,19.35
2022-09-15T04:56:24.624Z,19.45
2022-09-15T04:57:24.625Z,19.43
2022-09-15T04:58:24.627Z,19.43
2022-09-15T04:59:24.633Z,19.45
2022-09-15T05:00:22.673Z,19.43
2022-09-15T05:01:22.753Z,19.47
2022-09-15T05:02:22.714Z,19.46
2022-09-15T05:03:22.680Z,19.46
2022-09-15T05:04:24.633Z,19.53
2022-09-15T05:05:22.655Z,19.38
2022-09-15T05:06:22.646Z,19.49
2022-09-15T05:07:24.627Z,19.46
2022-09-15T05:08:24.163Z,19.49
2022-09-15T05:09:24.142Z,19.53
2022-09-15T05:10:24.152Z,19.49
2022-09-15T05:11:24.132Z,19.50
2022-09-15T05:12:24.134Z,19.53
2022-09-15T05:13:24.147Z,19.50
2022-09-15T05:14:24.143Z,19.47
2022-09-15T05:15:24.142Z,19.52
2022-09-15T05:16:24.319Z,19.50
2022-09-15T05:17:26.784Z,19.56
2022-09-15T05:18:24.175Z,19.53
2022-09-15T05:19:24.177Z,19.52
2022-09-15T05:20:24.142Z,19.55
2022-09-15T05:21:24.188Z,19.52
2022-09-15T05:22:24.141Z,19.63
2022-09-15T05:23:24.147Z,19.65
2022-09-15T05:24:24.167Z,19.63
2022-09-15T05:25:24.167Z,19.60
2022-09-15T05:26:24.142Z,19.56
2022-09-15T05:27:24.144Z,19.64
2022-09-15T05:28:24.155Z,19.65
2022-09-15T05:29:24.144Z,19.63
2022-09-15T05:30:37.838Z,19.70
2022-09-15T05:31:24.261Z,19.67
2022-09-15T05:32:24.152Z,19.65
2022-09-15T05:33:24.147Z,19.71
2022-09-15T05:34:24.165Z,19.71
2022-09-15T05:35:24.157Z,19.67
2022-09-15T05:36:22.544Z,19.71
2022-09-15T05:37:22.521Z,19.72
2022-09-15T05:38:22.527Z,19.75
2022-09-15T05:39:24.179Z,19.70
2022-09-15T05:40:22.589Z,19.63
2022-09-15T05:41:22.500Z,19.75
2022-09-15T05:42:22.523Z,19.79
2022-09-15T05:43:23.494Z,19.74
2022-09-15T05:44:24.174Z,19.72
2022-09-15T05:45:22.493Z,19.80
2022-09-15T05:46:24.175Z,19.80
2022-09-15T05:47:22.482Z,19.82
2022-09-15T05:48:22.474Z,19.74
2022-09-15T05:49:24.221Z,19.75
2022-09-15T05:50:23.461Z,19.83
2022-09-15T05:51:22.550Z,19.85
2022-09-15T05:52:24.239Z,19.75
2022-09-15T05:53:22.463Z,19.78
2022-09-15T05:54:22.457Z,19.74
2022-09-15T05:55:22.446Z,19.78
2022-09-15T05:56:23.866Z,19.82
2022-09-15T05:57:22.484Z,19.89
2022-09-15T05:58:22.478Z,19.83
2022-09-15T05:59:23.680Z,19.89
2022-09-15T06:00:22.439Z,19.80
2022-09-15T06:01:22.501Z,19.85
2022-09-15T06:02:22.459Z,19.89
2022-09-15T06:03:22.597Z,19.83
2022-09-15T06:04:24.210Z,19.86
2022-09-15T06:05:22.404Z,19.87
2022-09-15T06:06:24.186Z,19.86
2022-09-15T06:07:22.401Z,19.90
2022-09-15T06:08:22.401Z,19.93
2022-09-15T06:09:22.393Z,19.93
2022-09-15T06:10:24.186Z,19.90
2022-09-15T06:11:24.200Z,19.95
2022-09-15T06:12:24.196Z,19.87
2022-09-15T06:13:24.175Z,19.90
2022-09-15T06:14:24.197Z,19.95
2022-09-15T06:15:24.172Z,19.97
2022-09-15T06:16:24.337Z,19.98
2022-09-15T06:17:24.181Z,19.95
2022-09-15T06:18:24.196Z,20.01
2022-09-15T06:19:24.187Z,19.97
2022-09-15T06:20:24.195Z,20.01
2022-09-15T06:21:24.186Z,20.05
2022-09-15T06:22:24.183Z,20.02
2022-09-15T06:23:24.206Z,20.02
2022-09-15T06:24:24.190Z,20.04
2022-09-15T06:25:24.206Z,20.02
2022-09-15T06:26:22.316Z,20.05
2022-09-15T06:27:24.206Z,20.07
2022-09-15T06:28:24.199Z,20.07
2022-09-15T06:29:24.204Z,20.05
2022-09-15T06:30:24.188Z,20.16
2022-09-15T06:31:24.255Z,20.16
2022-09-15T06:32:24.193Z,20.18
2022-09-15T06:33:24.196Z,20.08
2022-09-15T06:35:22.298Z,20.15
2022-09-15T06:36:22.283Z,20.19
2022-09-15T06:37:22.272Z,20.19
2022-09-15T06:38:22.271Z,20.18
2022-09-15T06:40:22.338Z,20.22
2022-09-15T06:41:24.210Z,20.18
2022-09-15T06:42:24.200Z,20.18
2022-09-15T06:43:22.255Z,20.26
2022-09-15T06:44:24.302Z,20.26
2022-09-15T06:45:24.217Z,20.25
2022-09-15T06:46:22.277Z,20.29
2022-09-15T06:47:24.232Z,20.30
2022-09-15T06:48:25.266Z,20.27
2022-09-15T06:49:23.258Z,20.25
2022-09-15T06:50:24.227Z,20.27
2022-09-15T06:51:23.723Z,20.29
2022-09-15T06:52:23.212Z,20.35
2022-09-15T06:53:23.721Z,20.40
2022-09-15T06:54:23.709Z,20.40
2022-09-15T06:55:23.750Z,20.30
2022-09-15T06:56:23.749Z,20.38
2022-09-15T06:57:23.715Z,20.44
2022-09-15T06:58:23.714Z,20.46
2022-09-15T06:59:23.715Z,20.34
2022-09-15T07:00:23.725Z,20.37
2022-09-15T07:01:23.716Z,20.37
2022-09-15T07:02:23.896Z,20.34
2022-09-15T07:03:23.861Z,20.46
2022-09-15T07:04:23.722Z,20.42
2022-09-15T07:05:22.187Z,20.49
2022-09-15T07:06:22.191Z,20.57
2022-09-15T07:07:23.737Z,20.49
2022-09-15T07:08:22.162Z,20.54
2022-09-15T07:09:22.152Z,20.57
2022-09-15T07:10:22.160Z,20.58
2022-09-15T07:11:22.167Z,20.57
2022-09-15T07:12:23.768Z,20.60
2022-09-15T07:13:23.151Z,20.61
2022-09-15T07:14:22.151Z,20.63
2022-09-15T07:15:23.740Z,20.67
2022-09-15T07:16:22.180Z,20.67
2022-09-15T07:17:22.136Z,20.60
2022-09-15T07:18:22.131Z,20.76
2022-09-15T07:19:23.743Z,20.71
2022-09-15T07:20:23.766Z,20.72
2022-09-15T07:21:23.783Z,20.74
2022-09-15T07:22:23.773Z,20.75
2022-09-15T07:23:23.740Z,20.72
2022-09-15T07:24:23.734Z,20.78
2022-09-15T07:25:23.749Z,20.72
2022-09-15T07:26:23.757Z,20.81
2022-09-15T07:27:23.736Z,20.90
2022-09-15T07:28:23.262Z,20.81
2022-09-15T07:29:23.088Z,20.90
2022-09-15T07:30:24.246Z,20.91
2022-09-15T07:31:22.148Z,20.94
2022-09-15T07:32:23.754Z,20.93
2022-09-15T07:33:22.577Z,20.98
2022-09-15T07:34:22.073Z,21.01
2022-09-15T07:35:22.075Z,20.96
2022-09-15T07:36:23.805Z,21.03
2022-09-15T07:37:22.062Z,21.01
2022-09-15T07:38:22.069Z,20.98
2022-09-15T07:39:22.095Z,21.03
2022-09-15T07:40:22.161Z,21.11
2022-09-15T07:41:23.806Z,21.15
2022-09-15T07:42:23.768Z,21.19
2022-09-15T07:43:22.054Z,21.23
2022-09-15T07:44:22.097Z,21.33
2022-09-15T07:45:22.059Z,21.25
2022-09-15T07:46:23.765Z,21.30
2022-09-15T07:47:22.037Z,21.30
2022-09-15T07:48:26.465Z,21.31
2022-09-15T07:49:22.028Z,21.38
2022-09-15T07:50:22.055Z,21.48
2022-09-15T07:51:22.024Z,21.46
2022-09-15T07:52:23.771Z,21.49
2022-09-15T07:53:22.029Z,21.58
2022-09-15T07:54:23.078Z,21.52
2022-09-15T07:55:22.072Z,21.53
2022-09-15T07:56:22.053Z,21.53
2022-09-15T07:57:23.776Z,21.58
2022-09-15T07:58:24.409Z,21.67
2022-09-15T07:59:23.760Z,21.70
2022-09-15T08:00:24.048Z,21.58
2022-09-15T08:01:23.859Z,21.62
2022-09-15T08:02:23.879Z,21.68
2022-09-15T08:03:23.806Z,21.73
2022-09-15T08:04:23.809Z,21.71
2022-09-15T08:05:23.768Z,21.71
2022-09-15T08:06:23.780Z,21.74
2022-09-15T08:07:23.783Z,21.78
2022-09-15T08:08:23.770Z,21.83
2022-09-15T08:10:23.794Z,21.82
2022-09-15T08:11:23.805Z,21.92
2022-09-15T08:12:21.998Z,21.85
2022-09-15T08:13:21.969Z,22.02
2022-09-15T08:14:21.971Z,21.93
2022-09-15T08:15:23.796Z,21.93
2022-09-15T08:16:22.062Z,21.96
2022-09-15T08:17:23.808Z,22.00
2022-09-15T08:18:23.789Z,22.07
2022-09-15T08:19:23.780Z,22.09
2022-09-15T08:20:23.797Z,22.11
2022-09-15T08:21:21.973Z,22.09
2022-09-15T08:22:23.783Z,22.16
2022-09-15T08:23:23.786Z,22.23
2022-09-15T08:24:23.297Z,22.20
2022-09-15T08:25:22.935Z,22.22
2022-09-15T08:26:23.816Z,22.24
2022-09-15T08:27:23.786Z,22.24
2022-09-15T08:28:23.798Z,22.26
2022-09-15T08:29:23.848Z,22.31
2022-09-15T08:30:23.827Z,22.31
2022-09-15T08:31:24.158Z,22.38
2022-09-15T08:32:23.855Z,22.44
2022-09-15T08:33:23.807Z,22.45
2022-09-15T08:34:23.818Z,22.52
2022-09-15T08:35:23.806Z,22.57
2022-09-15T08:36:21.913Z,22.64
2022-09-15T08:37:21.923Z,22.55
2022-09-15T08:38:21.912Z,22.71
2022-09-15T08:39:21.907Z,22.69
2022-09-15T08:40:21.927Z,22.78
2022-09-15T08:41:23.809Z,22.78
2022-09-15T08:42:23.815Z,22.81
2022-09-15T08:43:21.909Z,22.86
2022-09-15T08:44:21.945Z,22.86
2022-09-15T08:45:21.934Z,22.92
2022-09-15T08:46:22.020Z,22.91
2022-09-15T08:47:22.035Z,22.94
2022-09-15T08:48:23.851Z,23.04
2022-09-15T08:49:40.926Z,23.01
2022-09-15T08:50:21.891Z,23.01
2022-09-15T08:51:22.903Z,23.04
2022-09-15T08:52:23.822Z,23.01
2022-09-15T08:53:21.885Z,23.06
2022-09-15T08:54:23.837Z,23.12
2022-09-15T08:55:23.811Z,23.12
2022-09-15T08:56:23.813Z,23.18
2022-09-15T08:57:23.830Z,23.25
2022-09-15T08:58:23.811Z,23.26
2022-09-15T08:59:23.817Z,23.25
2022-09-15T09:00:23.825Z,23.44
2022-09-15T09:01:23.855Z,23.35
2022-09-15T09:02:23.914Z,23.37
2022-09-15T09:03:23.835Z,23.34
2022-09-15T09:04:23.840Z,23.45
2022-09-15T09:05:23.823Z,23.47
2022-09-15T09:06:23.833Z,23.45
2022-09-15T09:07:23.864Z,23.59
2022-09-15T09:08:23.833Z,23.53
2022-09-15T09:09:23.845Z,23.48
2022-09-15T09:10:23.828Z,23.59
2022-09-15T09:11:21.868Z,23.50
2022-09-15T09:12:23.348Z,23.53
2022-09-15T09:13:22.855Z,23.60
2022-09-15T09:14:22.881Z,23.67
2022-09-15T09:15:21.866Z,23.67
2022-09-15T09:16:21.895Z,23.67
2022-09-15T09:17:22.866Z,23.71
2022-09-15T09:18:23.870Z,23.67
2022-09-15T09:19:23.843Z,23.74
2022-09-15T09:20:23.913Z,23.70
2022-09-15T09:21:23.839Z,23.70
2022-09-15T09:22:23.859Z,23.74
2022-09-15T09:23:23.851Z,23.66
2022-09-15T09:24:23.372Z,23.71
2022-09-15T09:25:27.680Z,23.72
2022-09-15T09:26:21.876Z,23.70
2022-09-15T09:27:21.877Z,23.77
2022-09-15T09:28:23.857Z,23.75
2022-09-15T09:29:21.855Z,23.77
2022-09-15T09:30:21.859Z,23.75
2022-09-15T09:31:21.941Z,23.77
2022-09-15T09:32:23.360Z,23.81
2022-09-15T09:33:21.845Z,23.79
2022-09-15T09:34:21.925Z,23.89
2022-09-15T09:35:21.848Z,23.89
2022-09-15T09:36:21.890Z,23.87
2022-09-15T09:37:23.404Z,23.97
2022-09-15T09:38:23.373Z,23.92
2022-09-15T09:39:27.897Z,23.92
2022-09-15T09:40:23.056Z,23.92
2022-09-15T09:41:22.272Z,24.08
2022-09-15T09:42:23.864Z,24.07
2022-09-15T09:43:21.985Z,24.11
2022-09-15T09:44:23.785Z,24.18
2022-09-15T09:45:21.840Z,24.17
2022-09-15T09:46:22.358Z,24.26
2022-09-15T09:47:21.883Z,24.26
2022-09-15T09:48:23.383Z,24.29
2022-09-15T09:49:23.375Z,24.37
2022-09-15T09:50:23.504Z,24.37
2022-09-15T09:51:23.372Z,24.49
2022-09-15T09:53:23.393Z,24.45
2022-09-15T09:54:23.378Z,24.45
2022-09-15T09:55:24.498Z,24.46
2022-09-15T09:56:23.370Z,24.54
2022-09-15T09:57:23.374Z,24.58
2022-09-15T09:58:21.829Z,24.54
2022-09-15T09:59:23.374Z,24.52
2022-09-15T10:00:23.371Z,24.61
2022-09-15T10:01:23.463Z,24.75
2022-09-15T10:02:21.842Z,24.66
2022-09-15T10:13:30.739Z,25.30
2022-09-15T10:15:29.479Z,25.33
2022-09-15T10:16:30.496Z,25.34
2022-09-15T10:17:30.597Z,25.30
2022-09-15T10:18:31.121Z,25.32
2022-09-15T10:19:31.088Z,25.29
2022-09-15T10:21:31.107Z,25.33
2022-09-15T10:22:29.485Z,25.37
2022-09-15T10:23:31.103Z,25.44
2022-09-15T10:24:31.105Z,25.45
2022-09-15T10:25:49.406Z,25.41
2022-09-15T10:26:29.492Z,25.44
2022-09-15T10:27:29.472Z,25.52
2022-09-15T10:28:29.481Z,25.52
2022-09-15T10:29:29.481Z,25.60
2022-09-15T10:30:31.140Z,25.70
2022-09-15T10:31:29.570Z,25.74
2022-09-15T10:32:31.131Z,25.75
2022-09-15T10:33:31.119Z,25.84
2022-09-15T10:34:31.596Z,25.91
2022-09-15T10:35:29.602Z,25.94
2022-09-15T10:36:31.132Z,25.99
2022-09-15T10:37:29.494Z,25.96
2022-09-15T10:38:31.117Z,26.04
2022-09-15T10:39:29.486Z,26.11
2022-09-15T10:40:31.219Z,26.19
2022-09-15T10:41:29.487Z,26.24
2022-09-15T10:42:29.487Z,26.37
2022-09-15T10:43:29.489Z,26.45
2022-09-15T10:44:29.505Z,26.41
2022-09-15T10:45:31.237Z,26.35
2022-09-15T10:46:29.507Z,26.42
2022-09-15T10:47:29.499Z,26.39
2022-09-15T10:48:31.126Z,26.50
2022-09-15T10:49:29.506Z,26.47
2022-09-15T10:50:31.131Z,26.42
2022-09-15T10:51:29.500Z,26.45
2022-09-15T10:52:31.210Z,26.44
2022-09-15T10:53:29.578Z,26.39
2022-09-15T10:54:29.557Z,26.38
2022-09-15T10:55:51.090Z,26.38
2022-09-15T10:56:30.670Z,26.38
2022-09-15T10:57:29.520Z,26.41
2022-09-15T10:58:29.508Z,26.47
2022-09-15T10:59:29.516Z,26.47
2022-09-15T11:00:29.532Z,26.59
2022-09-15T11:01:31.151Z,26.52
2022-09-15T11:02:31.268Z,26.64
2022-09-15T11:03:31.143Z,26.59
2022-09-15T11:04:29.535Z,26.56
2022-09-15T11:05:29.517Z,26.59
2022-09-15T11:06:29.540Z,26.59
2022-09-15T11:07:29.522Z,26.60
2022-09-15T11:08:31.150Z,26.63
2022-09-15T11:09:29.549Z,26.60
2022-09-15T11:10:31.148Z,26.64
2022-09-15T11:11:29.542Z,26.71
2022-09-15T11:12:31.177Z,26.74
2022-09-15T11:13:29.773Z,26.67
2022-09-15T11:14:32.410Z,26.67
2022-09-15T11:15:30.853Z,26.75
2022-09-15T11:16:31.514Z,26.64
2022-09-15T11:17:31.238Z,26.71
2022-09-15T11:18:31.843Z,26.64
2022-09-15T11:19:32.933Z,26.63
2022-09-15T11:20:30.575Z,26.57
2022-09-15T11:21:31.023Z,26.60
2022-09-15T11:22:33.570Z,26.53
2022-09-15T11:23:30.486Z,26.50
2022-09-15T11:24:31.115Z,26.47
2022-09-15T11:25:30.607Z,26.45
2022-09-15T11:26:30.385Z,26.26
2022-09-15T11:27:30.612Z,26.38
2022-09-15T11:28:29.836Z,26.26
2022-09-15T11:29:30.568Z,26.27
2022-09-15T11:30:29.977Z,26.23
2022-09-15T11:31:30.008Z,26.11
2022-09-15T11:32:32.344Z,26.09
2022-09-15T11:33:30.924Z,26.01
2022-09-15T11:34:32.257Z,26.06
2022-09-15T11:35:31.214Z,25.93
2022-09-15T11:36:29.558Z,25.86
2022-09-15T11:37:31.504Z,25.89
2022-09-15T11:38:29.879Z,25.79
2022-09-15T11:39:29.552Z,25.69
2022-09-15T11:40:29.629Z,25.70
2022-09-15T11:41:29.752Z,25.63
2022-09-15T11:42:32.045Z,25.57
2022-09-15T11:43:29.627Z,25.52
2022-09-15T11:44:31.217Z,25.54
2022-09-15T11:45:29.556Z,25.49
2022-09-15T11:46:29.638Z,25.45
2022-09-15T11:47:29.560Z,25.44
2022-09-15T11:48:31.189Z,25.44
2022-09-15T11:49:29.576Z,25.38
2022-09-15T11:50:31.190Z,25.32
2022-09-15T11:51:29.568Z,25.37
2022-09-15T11:52:29.576Z,25.34
2022-09-15T11:53:29.575Z,25.37
2022-09-15T11:54:31.502Z,25.30
2022-09-15T11:55:31.340Z,25.39
2022-09-15T11:56:29.552Z,25.34
2022-09-15T11:57:29.556Z,25.44
2022-09-15T11:58:29.551Z,25.33
2022-09-15T11:59:31.198Z,25.30
2022-09-15T12:00:29.549Z,25.30
2022-09-15T12:01:29.649Z,25.24
2022-09-15T12:02:29.698Z,25.29
2022-09-15T12:03:31.206Z,25.26
2022-09-15T12:04:29.550Z,25.23
2022-09-15T12:05:31.239Z,25.27
2022-09-15T12:06:29.562Z,25.20
2022-09-15T12:07:31.228Z,25.15
2022-09-15T12:08:29.558Z,25.11
2022-09-15T12:09:29.590Z,25.17
2022-09-15T12:10:31.234Z,25.11
2022-09-15T12:11:29.923Z,25.01
2022-09-15T12:13:29.546Z,25.04
2022-09-15T12:14:29.583Z,25.04
2022-09-15T12:15:31.382Z,24.94
2022-09-15T12:16:30.238Z,24.94
2022-09-15T12:17:29.549Z,24.96
2022-09-15T12:18:46.779Z,24.89
2022-09-15T12:19:31.206Z,24.78
2022-09-15T12:20:31.223Z,24.75
2022-09-15T12:21:29.566Z,24.85
2022-09-15T12:22:29.544Z,24.77
2022-09-15T12:23:31.223Z,24.70
2022-09-15T12:24:29.545Z,24.71
2022-09-15T12:25:29.541Z,24.63
2022-09-15T12:26:29.539Z,24.67
2022-09-15T12:27:29.540Z,24.66
2022-09-15T12:29:30.724Z,24.63
2022-09-15T12:30:29.535Z,24.63
2022-09-15T12:31:29.677Z,24.64
2022-09-15T12:32:31.243Z,24.59
2022-09-15T12:33:29.547Z,24.59
2022-09-15T12:34:29.536Z,24.61
2022-09-15T12:35:29.534Z,24.59
2022-09-15T12:36:31.246Z,24.54
2022-09-15T12:37:29.532Z,24.56
2022-09-15T12:38:31.225Z,24.61
2022-09-15T12:39:31.237Z,24.52
2022-09-15T12:40:29.655Z,24.59
2022-09-15T12:41:31.242Z,24.52
2022-09-15T12:42:31.270Z,24.56
2022-09-15T12:43:29.538Z,24.54
2022-09-15T12:44:31.242Z,24.52
2022-09-15T12:45:29.525Z,24.58
2022-09-15T12:46:31.303Z,24.64
2022-09-15T12:47:30.540Z,24.71
2022-09-15T12:48:31.243Z,24.75
2022-09-15T12:49:31.237Z,24.96
2022-09-15T12:50:31.258Z,25.02
2022-09-15T12:51:31.239Z,25.02
2022-09-15T12:52:30.532Z,25.04
2022-09-15T12:53:31.311Z,25.02
2022-09-15T12:54:31.248Z,25.04
2022-09-15T12:55:31.263Z,25.12
2022-09-15T12:56:31.262Z,25.09
2022-09-15T12:57:31.241Z,25.11
2022-09-15T12:58:29.518Z,25.14
2022-09-15T12:59:31.255Z,25.09
2022-09-15T13:00:31.268Z,25.09
2022-09-15T13:01:31.324Z,25.11
2022-09-15T13:02:31.373Z,25.15
2022-09-15T13:03:29.571Z,25.12
2022-09-15T13:04:31.270Z,25.08
2022-09-15T13:05:30.761Z,25.05
2022-09-15T13:06:30.532Z,25.11
2022-09-15T13:07:31.252Z,25.09
2022-09-15T13:08:30.772Z,25.08
2022-09-15T13:09:30.522Z,25.09
2022-09-15T13:10:31.356Z,25.12
2022-09-15T13:11:31.299Z,25.07
2022-09-15T13:12:31.254Z,25.22
2022-09-15T13:13:33.335Z,25.27
2022-09-15T13:14:31.265Z,25.29
2022-09-15T13:15:31.400Z,25.27
2022-09-15T13:16:31.269Z,25.24
2022-09-15T13:17:31.259Z,25.37
2022-09-15T13:18:29.526Z,25.56
2022-09-15T13:19:31.269Z,25.70
2022-09-15T13:20:31.288Z,25.64
2022-09-15T13:21:31.269Z,25.63
2022-09-15T13:22:31.276Z,25.60
2022-09-15T13:23:31.278Z,25.56
2022-09-15T13:24:31.295Z,25.62
2022-09-15T13:25:31.319Z,25.59
2022-09-15T13:26:31.292Z,25.74
2022-09-15T13:27:31.308Z,25.76
2022-09-15T13:28:29.515Z,25.75
2022-09-15T13:29:29.515Z,25.70
2022-09-15T13:30:29.540Z,25.75
2022-09-15T13:31:30.793Z,25.60
2022-09-15T13:32:29.522Z,25.57
2022-09-15T13:35:02.322Z,25.60
2022-09-15T13:35:29.524Z,25.56
2022-09-15T13:38:04.501Z,25.54
2022-09-15T13:38:32.325Z,25.57
2022-09-15T13:39:30.521Z,25.59
2022-09-15T13:40:31.352Z,25.71
2022-09-15T13:41:31.318Z,25.75
2022-09-15T13:42:31.304Z,25.74
2022-09-15T13:43:31.297Z,25.74
2022-09-15T13:44:37.352Z,25.71
2022-09-15T13:45:29.582Z,25.69
2022-09-15T13:46:31.656Z,25.74
2022-09-15T13:47:30.313Z,25.71
2022-09-15T13:48:31.309Z,25.75
2022-09-15T13:49:29.524Z,25.79
2022-09-15T13:50:29.521Z,25.67
2022-09-15T13:51:30.400Z,25.71
2022-09-15T13:52:29.519Z,25.70
2022-09-15T13:53:31.295Z,25.78
2022-09-15T13:54:29.518Z,25.67
2022-09-15T13:55:29.518Z,25.70
2022-09-15T13:56:31.347Z,25.79
2022-09-15T13:59:29.531Z,25.69
2022-09-15T14:00:29.763Z,25.71
2022-09-15T14:01:31.448Z,25.59
2022-09-15T14:02:29.711Z,25.56
2022-09-15T14:03:29.528Z,25.57
2022-09-15T14:04:29.530Z,25.51
2022-09-15T14:05:29.527Z,25.42
2022-09-15T14:06:31.336Z,25.37
2022-09-15T14:07:29.520Z,25.34
2022-09-15T14:08:29.522Z,25.30
2022-09-15T14:09:29.519Z,25.30
2022-09-15T14:10:29.521Z,25.30
2022-09-15T14:11:31.325Z,25.24
2022-09-15T14:12:31.340Z,25.15
2022-09-15T14:13:31.335Z,25.15
2022-09-15T14:14:29.529Z,25.08
2022-09-15T14:15:31.319Z,25.01
2022-09-15T14:16:29.583Z,25.01
2022-09-15T14:17:31.330Z,25.02
2022-09-15T14:18:29.523Z,25.04
2022-09-15T14:19:29.516Z,24.93
2022-09-15T14:20:31.336Z,24.96
2022-09-15T14:21:29.518Z,24.87
2022-09-15T14:22:29.515Z,24.71
2022-09-15T14:23:29.523Z,24.78
2022-09-15T14:24:29.507Z,24.80
2022-09-15T14:25:30.352Z,24.71
2022-09-15T14:26:29.531Z,24.67
2022-09-15T14:27:31.338Z,24.63
2022-09-15T14:28:31.810Z,24.56
2022-09-15T14:29:30.517Z,24.63
2022-09-15T14:30:31.333Z,24.61
2022-09-15T14:31:29.533Z,24.55
2022-09-15T14:32:29.512Z,24.48
2022-09-15T14:33:35.470Z,24.51
2022-09-15T14:34:29.511Z,24.45
2022-09-15T14:35:29.506Z,24.40
2022-09-15T14:36:29.502Z,24.40
2022-09-15T14:37:31.376Z,24.34
2022-09-15T14:38:29.505Z,24.37
2022-09-15T14:39:29.502Z,24.40
2022-09-15T14:40:31.417Z,24.45
2022-09-15T14:41:29.498Z,24.30
2022-09-15T14:42:31.358Z,24.45
2022-09-15T14:43:31.356Z,24.45
2022-09-15T14:46:31.345Z,24.71
2022-09-15T14:47:31.345Z,24.70
2022-09-15T14:48:31.356Z,24.89
2022-09-15T14:49:29.492Z,24.82
2022-09-15T14:50:33.072Z,24.83
2022-09-15T14:51:31.370Z,24.89
2022-09-15T14:52:29.492Z,24.87
2022-09-15T14:53:30.500Z,24.92
2022-09-15T14:54:31.353Z,24.93
2022-09-15T14:55:30.866Z,24.90
2022-09-15T14:56:29.512Z,24.93
2022-09-15T14:57:31.352Z,25.00
2022-09-15T14:58:29.488Z,25.00
2022-09-15T14:59:29.534Z,25.32
2022-09-15T15:00:30.892Z,25.60
2022-09-15T15:01:29.512Z,25.78
2022-09-15T15:02:29.561Z,25.82
2022-09-15T15:03:31.378Z,25.94
2022-09-15T15:04:29.480Z,26.06
2022-09-15T15:05:29.488Z,26.11
2022-09-15T15:06:31.385Z,25.96
2022-09-15T15:07:29.487Z,25.94
2022-09-15T15:08:31.378Z,25.86
2022-09-15T15:09:29.486Z,25.85
2022-09-15T15:10:34.899Z,25.89
2022-09-15T15:11:31.390Z,25.79
2022-09-15T15:12:31.368Z,25.85
2022-09-15T15:13:31.382Z,25.86
2022-09-15T15:14:31.422Z,25.94
2022-09-15T15:15:31.372Z,25.91
2022-09-15T15:16:31.561Z,26.00
2022-09-15T15:17:29.520Z,26.00
2022-09-15T15:18:32.391Z,25.94
2022-09-15T15:19:31.373Z,25.91
2022-09-15T15:20:32.523Z,25.94
2022-09-15T15:21:31.390Z,25.89
2022-09-15T15:22:31.386Z,25.93
2022-09-15T15:23:31.381Z,25.93
2022-09-15T15:24:31.413Z,25.88
2022-09-15T15:25:31.383Z,25.91
2022-09-15T15:26:31.396Z,25.81
2022-09-15T15:27:31.429Z,25.84
2022-09-15T15:28:31.418Z,25.78
2022-09-15T15:29:31.386Z,25.76
2022-09-15T15:30:31.386Z,25.74
2022-09-15T15:31:31.407Z,25.71
2022-09-15T15:32:31.427Z,25.76
2022-09-15T15:33:31.403Z,25.70
2022-09-15T15:34:31.395Z,25.67
2022-09-15T15:35:31.393Z,25.67
2022-09-15T15:36:31.389Z,25.57
2022-09-15T15:37:31.408Z,25.56
2022-09-15T15:38:29.514Z,25.57
2022-09-15T15:39:29.524Z,25.52
2022-09-15T15:40:29.617Z,25.52
2022-09-15T15:41:31.426Z,25.41
2022-09-15T15:42:29.533Z,25.34
2022-09-15T15:43:29.516Z,25.37
2022-09-15T15:44:29.530Z,25.37
2022-09-15T15:45:31.487Z,25.27
2022-09-15T15:46:29.525Z,25.26
2022-09-15T15:47:31.404Z,25.22
2022-09-15T15:48:35.213Z,25.15
2022-09-15T15:49:29.535Z,25.11
2022-09-15T15:50:31.406Z,25.07
2022-09-15T15:51:29.535Z,25.02
2022-09-15T15:52:31.422Z,25.04
2022-09-15T15:53:29.518Z,24.96
2022-09-15T15:54:31.409Z,24.86
2022-09-15T15:55:29.516Z,24.87
2022-09-15T15:56:34.667Z,24.77
2022-09-15T15:57:31.428Z,24.69
2022-09-15T15:58:31.415Z,24.71
2022-09-15T15:59:31.412Z,24.63
2022-09-15T16:00:31.494Z,24.59
2022-09-15T16:12:42.475Z,24.00
2022-09-15T16:13:42.487Z,24.04
2022-09-15T16:14:42.446Z,23.87
2022-09-15T16:15:42.439Z,23.75
2022-09-15T16:16:42.505Z,23.79
2022-09-15T16:17:46.019Z,23.77
2022-09-15T16:18:42.457Z,23.75
2022-09-15T16:19:40.822Z,23.71
2022-09-15T16:20:40.819Z,23.67
2022-09-15T16:21:40.816Z,23.64
2022-09-15T16:22:42.453Z,23.56
2022-09-15T16:23:42.464Z,23.55
2022-09-15T16:24:42.444Z,23.57
2022-09-15T16:25:42.628Z,23.60
2022-09-15T16:26:42.632Z,23.50
2022-09-15T16:27:42.461Z,23.44
2022-09-15T16:28:42.561Z,23.35
2022-09-15T16:29:42.451Z,23.32
2022-09-15T16:30:42.474Z,23.41
2022-09-15T16:31:42.513Z,23.34
2022-09-15T16:32:42.473Z,23.38
2022-09-15T16:33:42.467Z,23.26
2022-09-15T16:34:42.457Z,23.21
2022-09-15T16:35:42.480Z,23.21
2022-09-15T16:36:42.465Z,23.18
2022-09-15T16:37:42.458Z,23.22
2022-09-15T16:38:42.540Z,23.18
2022-09-15T16:39:42.468Z,23.14
2022-09-15T16:40:42.472Z,23.15
2022-09-15T16:41:42.465Z,23.12
2022-09-15T16:42:42.463Z,23.12
2022-09-15T16:43:42.564Z,23.04
2022-09-15T16:44:42.473Z,23.21
2022-09-15T16:45:41.180Z,23.03
2022-09-15T16:46:40.791Z,23.10
2022-09-15T16:47:42.482Z,23.14
2022-09-15T16:48:40.765Z,23.09
2022-09-15T16:49:40.767Z,23.07
2022-09-15T16:50:50.132Z,23.00
2022-09-15T16:51:42.485Z,23.07
2022-09-15T16:52:40.764Z,23.06
2022-09-15T16:53:42.495Z,23.04
2022-09-15T16:54:40.748Z,22.94
2022-09-15T16:55:42.474Z,22.97
2022-09-15T16:56:42.488Z,22.97
2022-09-15T16:57:40.743Z,22.91
2022-09-15T16:58:40.741Z,22.96
2022-09-15T16:59:42.477Z,22.91
2022-09-15T17:00:40.804Z,22.82
2022-09-15T17:01:42.542Z,22.84
2022-09-15T17:02:40.733Z,22.86
2022-09-15T17:03:40.732Z,22.82
2022-09-15T17:04:42.504Z,22.81
2022-09-15T17:05:44.007Z,22.79
2022-09-15T17:06:42.501Z,22.69
2022-09-15T17:07:42.484Z,22.75
2022-09-15T17:08:42.625Z,22.70
2022-09-15T17:09:42.500Z,22.75
2022-09-15T17:10:42.487Z,22.67
2022-09-15T17:11:42.499Z,22.67
2022-09-15T17:12:41.713Z,22.61
2022-09-15T17:13:42.522Z,22.60
2022-09-15T17:14:40.706Z,22.63
2022-09-15T17:15:40.738Z,22.59
2022-09-15T17:16:40.710Z,22.61
2022-09-15T17:17:42.506Z,22.59
2022-09-15T17:18:40.694Z,22.59
2022-09-15T17:19:40.694Z,22.48
2022-09-15T17:20:40.691Z,22.48
2022-09-15T17:21:42.512Z,22.49
2022-09-15T17:22:40.686Z,22.46
2022-09-15T17:23:42.559Z,22.45
2022-09-15T17:24:42.498Z,22.46
2022-09-15T17:25:42.502Z,22.48
2022-09-15T17:26:42.505Z,22.45